Time;durP1;ratioP1;P1;durP2;ratioP2;P2;SDS_P1;SDS_P2;PMS_P1;PMS_P2;Temp;Humidity;BMP_temperature;BMP_pressure;BME280_temperature;BME280_humidity;BME280_pressure;Samples;Min_cycle;Max_cycle;Signal;HPM_P1;HPM_P2
2021/10/05 00:00:22;;;;;;;18.55;11.02;;;;;;;;;;4934835;29;20103;-81
2021/10/05 00:02:48;;;;;;;20.88;14.13;;;;;;;;;;4934408;29;20197;-79
2021/10/05 00:05:14;;;;;;;13.95;9.13;;;;;;;;;;4934430;29;20071;-80
2021/10/05 00:07:39;;;;;;;13.32;8.32;;;;;;;;;;4934250;29;20075;-79
2021/10/05 00:10:06;;;;;;;14.93;9.68;;;;;;;;;;4933914;29;20035;-79
2021/10/05 00:12:33;;;;;;;15.00;8.27;;;;;;;;;;4933744;29;20126;-79
2021/10/05 00:14:59;;;;;;;18.88;11.57;;;;;;;;;;4916668;29;20457;-79
2021/10/05 00:17:25;;;;;;;15.55;8.57;;;;;;;;;;4933850;29;20039;-79
2021/10/05 00:19:51;;;;;;;13.18;7.88;;;;;;;;;;4934520;29;20052;-78
2021/10/05 00:22:18;;;;;;;18.90;11.50;;;;;;;;;;4917256;29;20039;-79
2021/10/05 00:24:44;;;;;;;14.98;10.95;;;;;;;;;;4933422;29;20036;-80
2021/10/05 00:27:09;;;;;;;13.70;8.10;;;;;;;;;;4936192;29;20047;-80
2021/10/05 00:29:38;;;;;;;13.90;8.38;;;;;;;;;;4944066;23;20482;-78
2021/10/05 00:32:04;;;;;;;14.02;7.85;;;;;;;;;;4936934;29;20063;-79
2021/10/05 00:34:30;;;;;;;19.67;10.80;;;;;;;;;;4919628;29;20138;-79
2021/10/05 00:36:56;;;;;;;15.30;9.23;;;;;;;;;;4937116;29;20408;-78
2021/10/05 00:39:22;;;;;;;16.45;11.13;;;;;;;;;;4937080;29;20031;-78
2021/10/05 00:41:48;;;;;;;14.48;9.90;;;;;;;;;;4936959;29;20043;-79
2021/10/05 00:44:13;;;;;;;16.33;8.07;;;;;;;;;;4936562;29;20036;-78
2021/10/05 00:46:39;;;;;;;12.57;8.75;;;;;;;;;;4936869;29;20039;-78
2021/10/05 00:49:04;;;;;;;12.63;8.25;;;;;;;;;;4936600;29;20039;-79
2021/10/05 00:51:30;;;;;;;18.63;12.45;;;;;;;;;;4936702;29;20032;-80
2021/10/05 00:53:56;;;;;;;14.32;8.77;;;;;;;;;;4936911;29;20504;-80
2021/10/05 00:56:22;;;;;;;18.10;10.77;;;;;;;;;;4936796;29;20094;-79
2021/10/05 00:58:47;;;;;;;20.88;10.70;;;;;;;;;;4936403;29;20042;-78
2021/10/05 01:01:15;;;;;;;17.23;9.50;;;;;;;;;;4936663;29;20043;-79
2021/10/05 01:03:41;;;;;;;15.32;9.20;;;;;;;;;;4935447;29;20143;-78
2021/10/05 01:06:07;;;;;;;16.67;8.88;;;;;;;;;;4937236;29;20118;-79
2021/10/05 01:08:32;;;;;;;12.40;7.93;;;;;;;;;;4936815;29;20178;-79
2021/10/05 01:10:58;;;;;;;14.70;8.60;;;;;;;;;;4936654;29;20087;-78
2021/10/05 01:13:24;;;;;;;13.68;8.32;;;;;;;;;;4936168;29;20086;-81
2021/10/05 01:15:50;;;;;;;14.10;6.93;;;;;;;;;;4919464;29;20036;-79
2021/10/05 01:18:15;;;;;;;11.60;7.22;;;;;;;;;;4936186;29;20039;-80
2021/10/05 01:21:03;;;;;;;13.85;8.80;;;;;;;;;;4936160;29;20047;-79
2021/10/05 01:23:29;;;;;;;11.45;7.13;;;;;;;;;;4936726;29;20034;-79
2021/10/05 01:25:55;;;;;;;13.30;7.90;;;;;;;;;;4936106;29;20042;-79
2021/10/05 01:28:23;;;;;;;14.68;8.82;;;;;;;;;;4936272;29;20039;-79
2021/10/05 01:30:48;;;;;;;14.32;9.25;;;;;;;;;;4935714;29;20068;-81
2021/10/05 01:33:15;;;;;;;15.52;7.82;;;;;;;;;;4935884;29;20409;-79
2021/10/05 01:35:40;;;;;;;17.13;10.23;;;;;;;;;;4936010;29;20516;-80
2021/10/05 01:38:07;;;;;;;17.17;12.82;;;;;;;;;;4935431;29;20036;-79
2021/10/05 01:40:34;;;;;;;16.67;8.82;;;;;;;;;;4935837;29;20074;-81
2021/10/05 01:43:00;;;;;;;14.35;9.02;;;;;;;;;;4935724;29;20036;-79
2021/10/05 01:45:25;;;;;;;16.83;9.60;;;;;;;;;;4918510;29;20046;-79
2021/10/05 01:47:51;;;;;;;19.77;11.90;;;;;;;;;;4918559;29;20409;-80
2021/10/05 01:50:18;;;;;;;19.90;13.80;;;;;;;;;;4935410;29;20046;-79
2021/10/05 01:52:44;;;;;;;13.93;8.68;;;;;;;;;;4935950;29;20067;-80
2021/10/05 01:55:10;;;;;;;16.30;11.82;;;;;;;;;;4935523;29;20035;-79
2021/10/05 01:57:37;;;;;;;16.30;9.57;;;;;;;;;;4935569;29;20118;-80
2021/10/05 02:00:06;;;;;;;18.85;9.18;;;;;;;;;;4902652;29;20390;-79
2021/10/05 02:02:31;;;;;;;17.98;9.35;;;;;;;;;;4935384;29;20031;-80
2021/10/05 02:04:57;;;;;;;13.88;8.82;;;;;;;;;;4935347;29;20148;-79
2021/10/05 02:07:22;;;;;;;19.10;9.57;;;;;;;;;;4935476;29;20047;-78
2021/10/05 02:09:51;;;;;;;13.63;8.07;;;;;;;;;;4935180;29;20382;-80
2021/10/05 02:12:17;;;;;;;14.15;8.73;;;;;;;;;;4935450;29;20497;-78
2021/10/05 02:14:47;;;;;;;11.18;8.00;;;;;;;;;;4935315;29;20028;-78
2021/10/05 02:17:14;;;;;;;15.38;9.27;;;;;;;;;;4936203;29;20074;-78
2021/10/05 02:19:40;;;;;;;14.98;7.22;;;;;;;;;;4935490;29;20564;-78
2021/10/05 02:22:06;;;;;;;11.85;7.72;;;;;;;;;;4935191;29;20147;-79
2021/10/05 02:24:44;;;;;;;16.88;9.20;;;;;;;;;;4935264;29;20031;-77
2021/10/05 02:27:15;;;;;;;14.98;8.63;;;;;;;;;;4935153;29;20062;-76
2021/10/05 02:29:41;;;;;;;14.93;10.32;;;;;;;;;;4917384;29;20044;-78
2021/10/05 02:32:09;;;;;;;13.13;9.63;;;;;;;;;;4934432;29;20059;-78
2021/10/05 02:34:36;;;;;;;12.38;8.25;;;;;;;;;;4933473;29;20023;-79
2021/10/05 02:37:03;;;;;;;13.45;9.43;;;;;;;;;;4934487;29;20039;-78
2021/10/05 02:39:28;;;;;;;16.27;10.10;;;;;;;;;;4934663;29;20038;-78
2021/10/05 02:41:55;;;;;;;18.67;10.48;;;;;;;;;;4934599;29;20476;-77
2021/10/05 02:44:20;;;;;;;17.00;9.63;;;;;;;;;;4934692;29;20032;-77
2021/10/05 02:46:46;;;;;;;19.70;9.75;;;;;;;;;;4934963;29;20123;-78
2021/10/05 02:49:12;;;;;;;19.83;10.95;;;;;;;;;;4934057;29;20062;-78
2021/10/05 02:51:39;;;;;;;15.05;8.68;;;;;;;;;;4935485;29;20071;-78
2021/10/05 02:54:05;;;;;;;17.48;7.65;;;;;;;;;;4935116;29;20040;-79
2021/10/05 02:56:31;;;;;;;9.63;6.80;;;;;;;;;;4935214;29;20549;-78
2021/10/05 02:58:56;;;;;;;23.23;13.52;;;;;;;;;;4934892;29;20039;-79
2021/10/05 03:01:21;;;;;;;20.92;11.75;;;;;;;;;;4917734;29;20063;-79
2021/10/05 03:03:47;;;;;;;23.35;13.68;;;;;;;;;;4934464;29;20039;-80
2021/10/05 03:06:13;;;;;;;21.75;12.30;;;;;;;;;;4918392;29;20600;-78
2021/10/05 03:08:41;;;;;;;32.58;14.52;;;;;;;;;;4935076;29;20035;-79
2021/10/05 03:11:07;;;;;;;26.77;13.07;;;;;;;;;;4935192;29;20488;-80
2021/10/05 03:13:36;;;;;;;32.08;15.98;;;;;;;;;;4935246;29;20036;-80
2021/10/05 03:16:04;;;;;;;29.50;18.65;;;;;;;;;;4934921;29;20032;-78
2021/10/05 03:18:30;;;;;;;33.72;16.25;;;;;;;;;;4934469;29;20122;-79
2021/10/05 03:20:56;;;;;;;19.77;11.27;;;;;;;;;;4934686;29;20493;-80
2021/10/05 03:23:22;;;;;;;21.85;11.20;;;;;;;;;;4934182;29;20054;-79
2021/10/05 03:25:48;;;;;;;25.65;13.13;;;;;;;;;;4934093;29;20036;-81
2021/10/05 03:28:13;;;;;;;16.38;9.23;;;;;;;;;;4917187;29;20046;-79
2021/10/05 03:30:39;;;;;;;19.50;12.57;;;;;;;;;;4933900;29;20063;-77
2021/10/05 03:33:05;;;;;;;22.73;12.00;;;;;;;;;;4934386;29;20035;-78
2021/10/05 03:35:31;;;;;;;17.67;11.73;;;;;;;;;;4917330;29;20046;-79
2021/10/05 03:38:05;;;;;;;27.00;13.73;;;;;;;;;;4933902;29;20048;-81
2021/10/05 03:40:33;;;;;;;31.33;18.67;;;;;;;;;;4933754;29;20035;-80
2021/10/05 03:42:59;;;;;;;18.58;12.60;;;;;;;;;;4934710;29;20036;-80
2021/10/05 03:45:24;;;;;;;21.98;11.98;;;;;;;;;;4934798;29;20407;-81
2021/10/05 03:47:51;;;;;;;20.38;11.80;;;;;;;;;;4933940;29;20040;-81
2021/10/05 03:50:19;;;;;;;20.63;10.98;;;;;;;;;;4934003;29;20035;-79
2021/10/05 03:52:45;;;;;;;27.17;17.95;;;;;;;;;;4916947;29;20039;-79
2021/10/05 03:55:10;;;;;;;19.08;11.40;;;;;;;;;;4934532;29;20507;-80
2021/10/05 03:57:39;;;;;;;23.27;14.70;;;;;;;;;;4934084;29;20036;-79
2021/10/05 04:00:05;;;;;;;18.20;10.50;;;;;;;;;;4934930;29;20028;-80
2021/10/05 04:02:31;;;;;;;17.00;8.45;;;;;;;;;;4937629;29;20078;-78
2021/10/05 04:04:56;;;;;;;13.07;10.85;;;;;;;;;;4937720;29;20119;-78
2021/10/05 04:07:22;;;;;;;12.65;8.32;;;;;;;;;;4920402;29;20504;-80
2021/10/05 04:09:47;;;;;;;16.67;11.18;;;;;;;;;;4936687;29;20575;-79
2021/10/05 04:12:12;;;;;;;19.13;11.55;;;;;;;;;;4937302;29;20059;-79
2021/10/05 04:14:38;;;;;;;13.23;8.23;;;;;;;;;;4936977;29;20044;-79
2021/10/05 04:17:03;;;;;;;14.27;9.45;;;;;;;;;;4938250;29;20046;-78
2021/10/05 04:19:30;;;;;;;11.57;8.65;;;;;;;;;;4937021;29;20081;-78
2021/10/05 04:21:55;;;;;;;14.13;9.38;;;;;;;;;;4936984;29;20042;-81
2021/10/05 04:24:21;;;;;;;14.23;10.65;;;;;;;;;;4937375;29;20429;-79
2021/10/05 04:26:46;;;;;;;11.43;8.10;;;;;;;;;;4936890;29;20122;-78
2021/10/05 04:29:12;;;;;;;9.60;6.70;;;;;;;;;;4936968;29;20088;-79
2021/10/05 04:31:39;;;;;;;14.60;8.02;;;;;;;;;;4919044;29;20070;-79
2021/10/05 04:34:05;;;;;;;9.00;6.25;;;;;;;;;;4919506;29;20422;-79
2021/10/05 04:36:35;;;;;;;13.43;7.07;;;;;;;;;;4936936;29;20031;-79
2021/10/05 04:39:01;;;;;;;14.25;7.75;;;;;;;;;;4936891;29;20187;-80
2021/10/05 04:41:26;;;;;;;13.45;8.40;;;;;;;;;;4936979;29;20122;-81
2021/10/05 04:43:52;;;;;;;15.63;8.85;;;;;;;;;;4939779;29;20032;-80
2021/10/05 04:46:18;;;;;;;14.45;9.75;;;;;;;;;;4937079;29;20035;-80
2021/10/05 04:48:44;;;;;;;11.82;8.10;;;;;;;;;;4931261;29;20043;-80
2021/10/05 04:51:10;;;;;;;10.00;6.95;;;;;;;;;;4917161;23;20068;-81
2021/10/05 04:53:36;;;;;;;9.80;6.78;;;;;;;;;;4917201;29;20044;-82
2021/10/05 04:56:03;;;;;;;10.75;9.13;;;;;;;;;;4916648;29;20082;-80
2021/10/05 04:58:29;;;;;;;16.27;13.07;;;;;;;;;;4918467;29;20036;-81
2021/10/05 05:00:56;;;;;;;9.57;6.40;;;;;;;;;;4917632;29;20055;-82
2021/10/05 05:03:23;;;;;;;12.50;9.95;;;;;;;;;;4900478;29;20043;-82
2021/10/05 05:05:49;;;;;;;11.68;6.47;;;;;;;;;;4917636;29;20119;-80
2021/10/05 05:08:19;;;;;;;16.35;8.35;;;;;;;;;;4917007;29;20092;-81
2021/10/05 05:10:44;;;;;;;17.00;9.30;;;;;;;;;;4916367;29;20116;-80
2021/10/05 05:13:11;;;;;;;10.88;7.28;;;;;;;;;;4917469;29;20111;-80
2021/10/05 05:15:38;;;;;;;10.95;6.80;;;;;;;;;;4900666;29;20084;-79
2021/10/05 05:18:03;;;;;;;11.27;6.95;;;;;;;;;;4916555;29;20067;-78
2021/10/05 05:20:29;;;;;;;13.60;10.60;;;;;;;;;;4915908;29;20075;-81
2021/10/05 05:22:54;;;;;;;9.98;7.05;;;;;;;;;;4916757;29;20036;-81
2021/10/05 05:25:19;;;;;;;10.93;8.48;;;;;;;;;;4917815;29;20031;-81
2021/10/05 05:27:45;;;;;;;13.13;7.38;;;;;;;;;;4900892;29;20064;-80
2021/10/05 05:30:15;;;;;;;16.95;10.57;;;;;;;;;;4918713;29;20040;-81
2021/10/05 05:32:40;;;;;;;9.23;6.63;;;;;;;;;;4917786;29;20058;-82
2021/10/05 05:35:06;;;;;;;10.30;7.10;;;;;;;;;;4917216;29;20068;-82
2021/10/05 05:37:32;;;;;;;9.60;6.63;;;;;;;;;;4900282;29;20427;-84
2021/10/05 05:40:02;;;;;;;12.90;8.27;;;;;;;;;;4917659;29;20461;-81
2021/10/05 05:42:27;;;;;;;9.32;6.47;;;;;;;;;;4918318;29;20039;-80
2021/10/05 05:44:52;;;;;;;11.43;7.10;;;;;;;;;;4917151;29;20184;-78
2021/10/05 05:47:18;;;;;;;11.23;8.07;;;;;;;;;;4916187;29;20032;-70
2021/10/05 05:49:44;;;;;;;12.57;10.00;;;;;;;;;;4915655;29;20044;-70
2021/10/05 05:52:09;;;;;;;8.38;5.78;;;;;;;;;;4915701;29;20056;-71
2021/10/05 05:54:34;;;;;;;12.13;7.50;;;;;;;;;;4915606;29;20043;-72
2021/10/05 05:57:00;;;;;;;8.70;5.88;;;;;;;;;;4915784;29;20036;-72
2021/10/05 05:59:25;;;;;;;8.88;5.60;;;;;;;;;;4915687;29;20040;-75
2021/10/05 06:01:50;;;;;;;10.70;6.43;;;;;;;;;;4916050;29;20115;-74
2021/10/05 06:04:16;;;;;;;12.25;9.85;;;;;;;;;;4916066;29;20458;-74
2021/10/05 06:06:41;;;;;;;11.60;6.88;;;;;;;;;;4916121;29;20383;-73
2021/10/05 06:09:07;;;;;;;9.32;5.78;;;;;;;;;;4915799;29;20562;-72
2021/10/05 06:11:35;;;;;;;9.20;6.55;;;;;;;;;;4915573;29;20044;-72
2021/10/05 06:14:01;;;;;;;8.77;6.93;;;;;;;;;;4898652;29;20062;-72
2021/10/05 06:16:26;;;;;;;6.30;4.65;;;;;;;;;;4914146;29;20040;-72
2021/10/05 06:18:52;;;;;;;15.00;8.57;;;;;;;;;;4933682;29;20059;-70
2021/10/05 06:21:18;;;;;;;11.40;6.20;;;;;;;;;;4934490;29;20062;-72
2021/10/05 06:23:43;;;;;;;7.88;5.25;;;;;;;;;;4933285;29;20108;-72
2021/10/05 06:26:09;;;;;;;14.05;6.40;;;;;;;;;;4934243;29;20047;-70
2021/10/05 06:28:34;;;;;;;11.90;8.13;;;;;;;;;;4917316;29;20035;-76
2021/10/05 06:31:02;;;;;;;14.48;7.20;;;;;;;;;;4917387;29;20036;-76
2021/10/05 06:33:28;;;;;;;12.88;7.15;;;;;;;;;;4934111;29;20032;-76
2021/10/05 06:35:54;;;;;;;11.45;7.00;;;;;;;;;;4934681;29;20521;-84
2021/10/05 06:38:23;;;;;;;9.52;5.60;;;;;;;;;;4935934;29;20031;-84
2021/10/05 06:40:49;;;;;;;8.93;5.82;;;;;;;;;;4918408;29;20052;-84
2021/10/05 06:43:14;;;;;;;9.13;5.28;;;;;;;;;;4935803;29;20039;-82
2021/10/05 06:45:40;;;;;;;8.23;5.00;;;;;;;;;;4918122;29;20031;-82
2021/10/05 06:48:08;;;;;;;9.68;6.47;;;;;;;;;;4935413;29;20035;-84
2021/10/05 06:50:34;;;;;;;9.93;6.35;;;;;;;;;;4935044;29;20071;-82
2021/10/05 06:53:01;;;;;;;9.27;6.53;;;;;;;;;;4918155;29;20032;-80
2021/10/05 06:55:27;;;;;;;13.88;8.05;;;;;;;;;;4935762;29;20043;-87
2021/10/05 06:57:52;;;;;;;11.25;6.65;;;;;;;;;;4934211;29;20091;-85
2021/10/05 07:00:18;;;;;;;9.65;7.22;;;;;;;;;;4935245;29;20039;-83
2021/10/05 07:02:48;;;;;;;14.93;8.38;;;;;;;;;;4918535;29;20039;-85
2021/10/05 07:05:16;;;;;;;12.82;7.03;;;;;;;;;;4904122;29;20044;-85
2021/10/05 07:07:43;;;;;;;12.32;8.00;;;;;;;;;;4919959;29;20040;-86
2021/10/05 07:10:16;;;;;;;12.48;6.57;;;;;;;;;;4935483;29;20063;-84
2021/10/05 07:12:42;;;;;;;14.25;7.50;;;;;;;;;;4934890;29;20139;-81
2021/10/05 07:15:10;;;;;;;9.63;5.95;;;;;;;;;;4934556;29;20122;-85
2021/10/05 07:17:35;;;;;;;7.20;5.53;;;;;;;;;;4917715;29;20039;-82
2021/10/05 07:20:06;;;;;;;8.32;5.40;;;;;;;;;;4934612;29;20094;-83
2021/10/05 07:22:32;;;;;;;11.43;7.50;;;;;;;;;;4934127;29;20036;-84
2021/10/05 07:24:57;;;;;;;11.90;7.47;;;;;;;;;;4934480;29;20040;-81
2021/10/05 07:27:25;;;;;;;11.30;7.68;;;;;;;;;;4934829;29;20032;-83
2021/10/05 07:29:50;;;;;;;10.80;6.78;;;;;;;;;;4934605;29;20032;-80
2021/10/05 07:32:16;;;;;;;11.60;7.43;;;;;;;;;;4934106;29;20050;-78
2021/10/05 07:34:42;;;;;;;9.95;6.57;;;;;;;;;;4936293;29;20107;-80
2021/10/05 07:37:10;;;;;;;12.50;7.10;;;;;;;;;;4940846;29;20043;-80
2021/10/05 07:39:39;;;;;;;7.10;5.10;;;;;;;;;;4939178;29;20043;-83
2021/10/05 07:42:05;;;;;;;10.30;6.60;;;;;;;;;;4939059;29;20043;-80
2021/10/05 07:44:32;;;;;;;10.48;6.70;;;;;;;;;;4921599;29;20397;-79
2021/10/05 07:47:01;;;;;;;11.30;6.60;;;;;;;;;;4938723;29;20036;-82
2021/10/05 07:49:26;;;;;;;13.55;7.85;;;;;;;;;;4939169;29;20036;-80
2021/10/05 07:51:52;;;;;;;8.88;6.88;;;;;;;;;;4938681;29;20131;-83
2021/10/05 07:54:17;;;;;;;8.32;6.10;;;;;;;;;;4939221;29;20520;-82
2021/10/05 07:56:43;;;;;;;13.23;7.35;;;;;;;;;;4942441;29;20036;-82
2021/10/05 07:59:08;;;;;;;9.60;6.30;;;;;;;;;;4940340;29;20494;-83
2021/10/05 08:01:36;;;;;;;7.82;4.82;;;;;;;;;;4923683;29;20044;-82
2021/10/05 08:04:02;;;;;;;9.30;6.35;;;;;;;;;;4940740;29;20031;-81
2021/10/05 08:06:27;;;;;;;8.60;5.60;;;;;;;;;;4924765;29;20032;-81
2021/10/05 08:08:53;;;;;;;10.88;6.07;;;;;;;;;;4924020;29;20036;-80
2021/10/05 08:11:19;;;;;;;10.32;7.88;;;;;;;;;;4923727;29;20039;-81
2021/10/05 08:13:45;;;;;;;5.55;4.97;;;;;;;;;;4940810;29;20032;-81
2021/10/05 08:16:11;;;;;;;9.70;6.45;;;;;;;;;;4923524;29;20039;-79
2021/10/05 08:18:39;;;;;;;8.05;5.88;;;;;;;;;;4922723;29;20038;-81
2021/10/05 08:21:05;;;;;;;9.98;6.95;;;;;;;;;;4940978;29;20076;-81
2021/10/05 08:23:30;;;;;;;11.10;7.13;;;;;;;;;;4940715;29;20028;-82
2021/10/05 08:25:57;;;;;;;9.52;6.15;;;;;;;;;;4938974;29;20098;-82
2021/10/05 08:28:26;;;;;;;9.35;5.45;;;;;;;;;;4938951;29;20063;-82
2021/10/05 08:30:51;;;;;;;9.05;6.10;;;;;;;;;;4938375;29;20070;-82
2021/10/05 08:33:18;;;;;;;6.30;5.18;;;;;;;;;;4938415;29;20063;-82
2021/10/05 08:35:44;;;;;;;8.52;4.90;;;;;;;;;;4923664;29;20883;-83
2021/10/05 08:38:10;;;;;;;6.05;4.70;;;;;;;;;;4939209;29;20118;-83
2021/10/05 08:40:35;;;;;;;12.07;6.07;;;;;;;;;;4951129;23;20506;-84
2021/10/05 08:43:01;;;;;;;7.93;5.20;;;;;;;;;;4923947;29;20032;-82
2021/10/05 08:45:27;;;;;;;9.40;5.68;;;;;;;;;;4922133;29;20036;-81
2021/10/05 08:47:54;;;;;;;9.38;4.80;;;;;;;;;;4917779;29;20060;-81
2021/10/05 08:50:20;;;;;;;7.97;4.85;;;;;;;;;;4917453;29;20039;-80
2021/10/05 08:52:46;;;;;;;9.05;4.60;;;;;;;;;;4919815;29;20040;-82
2021/10/05 08:55:13;;;;;;;13.48;7.88;;;;;;;;;;4918198;29;20032;-81
2021/10/05 08:57:42;;;;;;;11.20;5.43;;;;;;;;;;4906385;29;20512;-81
2021/10/05 09:00:08;;;;;;;9.07;5.63;;;;;;;;;;4930090;29;20032;-87
2021/10/05 09:02:52;;;;;;;8.55;6.07;;;;;;;;;;4914901;29;20046;-86
2021/10/05 09:05:18;;;;;;;9.05;5.40;;;;;;;;;;4918498;29;20043;-84
2021/10/05 09:07:51;;;;;;;8.27;5.50;;;;;;;;;;4914109;29;20040;-85
2021/10/05 09:10:23;;;;;;;8.35;5.18;;;;;;;;;;4925657;29;20040;-83
2021/10/05 09:12:49;;;;;;;7.70;5.07;;;;;;;;;;4936327;29;20096;-84
2021/10/05 09:15:17;;;;;;;11.88;5.35;;;;;;;;;;4922810;29;20059;-84
2021/10/05 09:18:04;;;;;;;9.98;6.00;;;;;;;;;;4903746;29;20063;-86
2021/10/05 09:20:35;;;;;;;9.55;5.90;;;;;;;;;;4887309;29;20044;-85
2021/10/05 09:23:12;;;;;;;7.97;5.07;;;;;;;;;;4903721;29;20040;-86
2021/10/05 09:25:41;;;;;;;6.18;4.63;;;;;;;;;;4903101;29;20063;-85
2021/10/05 09:28:53;;;;;;;8.27;5.32;;;;;;;;;;4920785;29;20103;-86
2021/10/05 09:31:20;;;;;;;10.95;5.85;;;;;;;;;;4902111;29;20043;-83
2021/10/05 09:33:52;;;;;;;7.22;5.05;;;;;;;;;;4906843;29;20066;-84
2021/10/05 09:36:36;;;;;;;6.30;4.60;;;;;;;;;;4920681;29;20055;-85
2021/10/05 09:39:02;;;;;;;10.48;5.95;;;;;;;;;;4905352;29;20082;-87
2021/10/05 09:41:28;;;;;;;9.85;7.32;;;;;;;;;;4922012;29;20418;-88
2021/10/05 09:44:26;;;;;;;8.50;5.25;;;;;;;;;;4903301;29;20058;-89
2021/10/05 09:46:52;;;;;;;8.98;5.43;;;;;;;;;;4903461;29;20032;-89
2021/10/05 09:49:24;;;;;;;8.20;5.55;;;;;;;;;;4919360;29;20091;-87
2021/10/05 09:52:00;;;;;;;9.48;5.82;;;;;;;;;;4919585;29;20039;-85
2021/10/05 09:54:27;;;;;;;7.68;5.72;;;;;;;;;;4916678;29;20036;-84
2021/10/05 09:56:54;;;;;;;10.27;5.65;;;;;;;;;;4919334;29;20561;-89
2021/10/05 09:59:20;;;;;;;6.65;5.22;;;;;;;;;;4918256;29;20040;-86
2021/10/05 10:02:20;;;;;;;11.95;7.13;;;;;;;;;;4920729;29;20451;-88
2021/10/05 10:04:49;;;;;;;9.85;4.93;;;;;;;;;;4903057;29;20060;-88
2021/10/05 10:07:14;;;;;;;8.27;5.20;;;;;;;;;;4918693;29;20059;-82
2021/10/05 10:09:40;;;;;;;10.52;5.53;;;;;;;;;;4918288;29;20435;-84
2021/10/05 10:12:06;;;;;;;7.80;5.43;;;;;;;;;;4919722;29;20125;-82
2021/10/05 10:14:31;;;;;;;9.27;5.80;;;;;;;;;;4925318;29;20048;-84
2021/10/05 10:16:57;;;;;;;10.05;6.25;;;;;;;;;;4923946;29;20071;-83
2021/10/05 10:19:29;;;;;;;8.85;6.07;;;;;;;;;;4924566;29;20047;-83
2021/10/05 10:22:08;;;;;;;6.45;4.68;;;;;;;;;;4904891;29;20048;-82
2021/10/05 10:24:52;;;;;;;6.50;3.67;;;;;;;;;;4886697;29;20036;-82
2021/10/05 10:27:19;;;;;;;8.23;5.70;;;;;;;;;;4900837;29;20406;-84
2021/10/05 10:29:45;;;;;;;7.45;4.75;;;;;;;;;;4900004;29;20071;-81
2021/10/05 10:32:19;;;;;;;10.30;6.13;;;;;;;;;;4916387;29;20502;-83
2021/10/05 10:35:08;;;;;;;9.27;5.82;;;;;;;;;;4915184;29;20247;-81
2021/10/05 10:37:47;;;;;;;8.23;5.13;;;;;;;;;;4899288;29;20032;-82
2021/10/05 10:40:15;;;;;;;7.15;4.80;;;;;;;;;;4899047;29;20126;-84
2021/10/05 10:42:41;;;;;;;8.60;5.70;;;;;;;;;;4899456;29;20040;-83
2021/10/05 10:45:17;;;;;;;8.75;7.55;;;;;;;;;;4916300;29;20465;-82
2021/10/05 10:47:45;;;;;;;9.18;5.60;;;;;;;;;;4916875;29;20119;-84
2021/10/05 10:50:15;;;;;;;11.00;5.28;;;;;;;;;;4899560;29;20067;-82
2021/10/05 10:52:46;;;;;;;8.30;5.28;;;;;;;;;;4916243;29;20039;-83
2021/10/05 10:55:16;;;;;;;8.65;5.10;;;;;;;;;;4916994;29;20040;-85
2021/10/05 10:57:44;;;;;;;11.20;6.90;;;;;;;;;;4916917;29;20101;-86
2021/10/05 11:00:18;;;;;;;9.00;4.50;;;;;;;;;;4917485;29;20036;-82
2021/10/05 11:02:50;;;;;;;5.63;4.32;;;;;;;;;;4899666;29;20035;-83
2021/10/05 11:05:18;;;;;;;7.15;4.82;;;;;;;;;;4915371;29;20573;-77
2021/10/05 11:07:44;;;;;;;13.00;6.00;;;;;;;;;;4915378;29;20028;-80
2021/10/05 11:10:10;;;;;;;8.68;5.25;;;;;;;;;;4914671;29;20615;-79
2021/10/05 11:12:39;;;;;;;6.95;5.32;;;;;;;;;;4915131;29;20032;-79
2021/10/05 11:15:07;;;;;;;5.90;4.28;;;;;;;;;;4915495;29;20036;-79
2021/10/05 11:17:35;;;;;;;6.72;4.95;;;;;;;;;;4914244;29;20040;-80
2021/10/05 11:20:07;;;;;;;8.90;5.45;;;;;;;;;;4901972;29;20040;-78
2021/10/05 11:22:34;;;;;;;8.05;4.60;;;;;;;;;;4918470;29;20040;-78
2021/10/05 11:25:00;;;;;;;4.95;4.32;;;;;;;;;;4917637;29;20067;-76
2021/10/05 11:27:26;;;;;;;8.52;4.00;;;;;;;;;;4903910;29;20036;-77
2021/10/05 11:29:59;;;;;;;6.40;4.88;;;;;;;;;;4920027;29;20071;-79
2021/10/05 11:32:24;;;;;;;6.72;4.63;;;;;;;;;;4904254;29;20036;-80
2021/10/05 11:34:52;;;;;;;6.10;3.78;;;;;;;;;;4927316;29;20046;-83
2021/10/05 11:37:20;;;;;;;6.00;4.07;;;;;;;;;;4930775;29;20027;-80
2021/10/05 11:39:48;;;;;;;10.02;4.28;;;;;;;;;;4918948;29;20036;-80
2021/10/05 11:42:23;;;;;;;17.70;7.10;;;;;;;;;;4938396;29;20048;-84
2021/10/05 11:44:58;;;;;;;10.32;6.00;;;;;;;;;;4903539;29;20043;-81
2021/10/05 11:47:26;;;;;;;9.55;5.65;;;;;;;;;;4937103;29;20040;-82
2021/10/05 11:49:58;;;;;;;7.43;4.78;;;;;;;;;;4936725;29;20086;-82
2021/10/05 11:52:29;;;;;;;6.70;5.00;;;;;;;;;;4938300;29;20023;-83
2021/10/05 11:54:55;;;;;;;9.52;6.35;;;;;;;;;;4916813;29;20406;-80
2021/10/05 11:57:27;;;;;;;12.25;6.75;;;;;;;;;;4920279;29;20359;-79
2021/10/05 11:59:55;;;;;;;11.52;5.45;;;;;;;;;;4930001;29;20042;-81
2021/10/05 12:02:24;;;;;;;8.48;6.80;;;;;;;;;;4926345;29;20399;-80
2021/10/05 12:04:55;;;;;;;9.68;5.10;;;;;;;;;;4927152;29;20255;-81
2021/10/05 12:07:23;;;;;;;7.18;4.38;;;;;;;;;;4912435;29;20051;-81
2021/10/05 12:10:04;;;;;;;10.13;5.05;;;;;;;;;;4926696;29;20032;-82
2021/10/05 12:12:35;;;;;;;9.30;4.45;;;;;;;;;;4925684;29;20131;-78
2021/10/05 12:15:05;;;;;;;7.40;5.32;;;;;;;;;;4907216;29;20466;-80
2021/10/05 12:17:34;;;;;;;9.50;4.88;;;;;;;;;;4910409;29;20036;-81
2021/10/05 12:20:03;;;;;;;8.05;5.22;;;;;;;;;;4926178;29;20096;-81
2021/10/05 12:22:31;;;;;;;9.20;5.38;;;;;;;;;;4910494;29;20052;-82
2021/10/05 12:25:00;;;;;;;9.38;5.13;;;;;;;;;;4908289;29;20066;-80
2021/10/05 12:27:35;;;;;;;5.30;3.90;;;;;;;;;;4925163;29;20064;-81
2021/10/05 12:30:04;;;;;;;6.53;4.18;;;;;;;;;;4928603;29;20036;-82
2021/10/05 12:32:49;;;;;;;10.38;6.70;;;;;;;;;;4926427;29;20398;-80
2021/10/05 12:35:32;;;;;;;8.40;5.57;;;;;;;;;;4919958;29;20502;-79
2021/10/05 12:38:18;;;;;;;9.57;7.00;;;;;;;;;;4918189;29;20375;-80
2021/10/05 12:41:00;;;;;;;10.98;4.88;;;;;;;;;;4918496;29;20052;-85
2021/10/05 12:43:44;;;;;;;7.32;5.20;;;;;;;;;;4920154;29;20036;-84
2021/10/05 12:46:12;;;;;;;10.35;5.47;;;;;;;;;;4919770;29;20490;-86
2021/10/05 12:49:11;;;;;;;7.93;4.95;;;;;;;;;;4918798;29;20526;-83
2021/10/05 12:51:47;;;;;;;9.82;7.20;;;;;;;;;;4919924;29;20398;-79
2021/10/05 12:54:12;;;;;;;7.18;4.85;;;;;;;;;;4919030;29;20040;-80
2021/10/05 12:56:38;;;;;;;7.70;4.30;;;;;;;;;;4918777;29;20043;-81
2021/10/05 12:59:06;;;;;;;10.27;5.40;;;;;;;;;;4917520;29;20619;-80
2021/10/05 13:01:36;;;;;;;7.53;5.90;;;;;;;;;;4917996;29;20464;-77
2021/10/05 13:04:08;;;;;;;6.07;4.78;;;;;;;;;;4918694;29;20128;-81
2021/10/05 13:06:34;;;;;;;6.80;4.20;;;;;;;;;;4925001;29;20036;-79
2021/10/05 13:09:02;;;;;;;6.88;4.78;;;;;;;;;;4918874;29;20083;-80
2021/10/05 13:11:33;;;;;;;9.20;5.03;;;;;;;;;;4915930;29;20091;-81
2021/10/05 13:13:58;;;;;;;8.55;5.25;;;;;;;;;;4918062;29;20123;-81
2021/10/05 13:16:23;;;;;;;8.00;5.35;;;;;;;;;;4917040;29;20124;-79
2021/10/05 13:18:49;;;;;;;19.30;5.38;;;;;;;;;;4917885;29;20040;-79
2021/10/05 13:21:15;;;;;;;7.30;4.30;;;;;;;;;;4917453;29;20630;-78
2021/10/05 13:23:40;;;;;;;6.22;4.05;;;;;;;;;;4917465;29;20104;-79
2021/10/05 13:26:06;;;;;;;6.90;5.25;;;;;;;;;;4917482;29;20399;-78
2021/10/05 13:28:31;;;;;;;9.98;4.78;;;;;;;;;;4917492;29;20032;-79
2021/10/05 13:30:57;;;;;;;6.68;5.95;;;;;;;;;;4917773;29;20410;-80
2021/10/05 13:33:22;;;;;;;7.60;4.85;;;;;;;;;;4917440;29;20088;-79
2021/10/05 13:35:48;;;;;;;6.13;4.25;;;;;;;;;;4917316;29;20523;-78
2021/10/05 13:38:15;;;;;;;13.15;4.57;;;;;;;;;;4899887;29;20032;-79
2021/10/05 13:40:43;;;;;;;8.98;7.40;;;;;;;;;;4900090;29;20458;-80
2021/10/05 13:43:11;;;;;;;9.05;6.00;;;;;;;;;;4917247;29;20067;-79
2021/10/05 13:45:38;;;;;;;6.43;4.35;;;;;;;;;;4916786;29;20044;-78
2021/10/05 13:48:04;;;;;;;6.82;4.53;;;;;;;;;;4916752;29;20059;-80
2021/10/05 13:50:32;;;;;;;9.82;5.32;;;;;;;;;;4916744;29;20525;-79
2021/10/05 13:52:57;;;;;;;7.50;4.35;;;;;;;;;;4915473;29;20043;-79
2021/10/05 13:55:23;;;;;;;7.25;4.18;;;;;;;;;;4916767;29;20036;-76
2021/10/05 13:57:49;;;;;;;6.15;4.30;;;;;;;;;;4916895;29;20036;-77
2021/10/05 14:00:15;;;;;;;9.50;5.15;;;;;;;;;;4916445;29;20241;-77
2021/10/05 14:02:40;;;;;;;7.97;4.32;;;;;;;;;;4916352;29;20039;-79
2021/10/05 14:05:07;;;;;;;6.32;5.05;;;;;;;;;;4916185;29;20040;-77
2021/10/05 14:07:33;;;;;;;7.05;5.85;;;;;;;;;;4916215;29;20482;-78
2021/10/05 14:09:58;;;;;;;5.28;4.15;;;;;;;;;;4915832;29;20068;-78
2021/10/05 14:12:24;;;;;;;5.43;4.25;;;;;;;;;;4915649;29;20123;-79
2021/10/05 14:14:50;;;;;;;7.40;4.60;;;;;;;;;;4916118;29;20031;-78
2021/10/05 14:17:19;;;;;;;8.55;5.10;;;;;;;;;;4915946;29;20114;-79
2021/10/05 14:19:49;;;;;;;9.23;5.22;;;;;;;;;;4915664;29;20036;-79
2021/10/05 14:22:18;;;;;;;6.60;4.38;;;;;;;;;;4915380;29;20070;-79
2021/10/05 14:24:48;;;;;;;9.13;5.93;;;;;;;;;;4914415;29;20812;-78
2021/10/05 14:27:14;;;;;;;7.60;5.28;;;;;;;;;;4915392;29;20107;-78
2021/10/05 14:29:39;;;;;;;6.38;3.92;;;;;;;;;;4915228;29;20036;-80
2021/10/05 14:32:05;;;;;;;9.65;5.00;;;;;;;;;;4915371;29;20106;-79
2021/10/05 14:34:31;;;;;;;7.28;4.47;;;;;;;;;;4915284;29;20039;-77
2021/10/05 14:36:56;;;;;;;7.65;4.68;;;;;;;;;;4915442;29;20059;-80